createdAt,value
2022-12-26T00:07:15.619Z,97017.61
2022-12-26T00:17:19.803Z,97032.20
2022-12-26T00:27:25.097Z,97032.40
2022-12-26T00:37:29.079Z,97018.18
2022-12-26T00:47:33.154Z,96991.34
2022-12-26T00:57:37.562Z,96983.46
2022-12-26T01:08:23.618Z,96972.51
2022-12-26T01:18:07.099Z,96964.27
2022-12-26T01:28:10.959Z,96962.27
2022-12-26T01:38:15.014Z,96967.41
2022-12-26T01:48:33.848Z,96953.58
2022-12-26T01:58:48.160Z,96948.85
2022-12-26T02:08:52.635Z,96942.77
2022-12-26T02:18:56.624Z,96938.21
2022-12-26T02:29:03.374Z,96925.77
2022-12-26T02:39:47.347Z,96921.80
2022-12-26T02:50:27.367Z,96908.05
2022-12-26T03:00:53.445Z,96887.98
2022-12-26T03:11:17.927Z,96869.88
2022-12-26T03:21:27.975Z,96840.44
2022-12-26T03:31:31.837Z,96810.03
2022-12-26T03:42:16.962Z,96795.52
2022-12-26T03:52:58.288Z,96789.96
2022-12-26T04:03:30.139Z,96802.09
2022-12-26T04:14:05.481Z,96806.34
2022-12-26T04:24:59.189Z,96808.95
2022-12-26T04:36:01.485Z,96802.15
2022-12-26T04:46:07.858Z,96783.65
2022-12-26T04:56:11.715Z,96776.14
2022-12-26T05:06:34.189Z,96778.94
2022-12-26T05:16:56.476Z,96772.83
2022-12-26T05:27:19.479Z,96768.45
2022-12-26T05:37:24.175Z,96759.21
2022-12-26T05:47:28.159Z,96757.64
2022-12-26T05:57:33.156Z,96763.90
2022-12-26T06:07:37.118Z,96771.89
2022-12-26T06:17:41.829Z,96790.37
2022-12-26T06:27:45.779Z,96810.59
2022-12-26T06:37:49.985Z,96823.27
2022-12-26T06:47:54.241Z,96825.36
2022-12-26T06:57:58.100Z,96820.05
2022-12-26T07:08:02.001Z,96827.21
2022-12-26T07:18:06.169Z,96845.35
2022-12-26T07:28:10.560Z,96866.85
2022-12-26T07:38:15.023Z,96872.10
2022-12-26T07:48:19.281Z,96870.78
2022-12-26T07:58:23.287Z,96858.45
2022-12-26T08:08:27.346Z,96860.11
2022-12-26T08:18:31.327Z,96861.00
2022-12-26T08:28:36.015Z,96862.54
2022-12-26T08:38:41.723Z,96873.52
2022-12-26T08:48:47.915Z,96866.49
2022-12-26T08:58:52.140Z,96878.86
2022-12-26T09:08:56.348Z,96885.42
2022-12-26T09:19:02.534Z,96887.77
2022-12-26T09:29:06.921Z,96888.55
2022-12-26T09:39:12.434Z,96882.36
2022-12-26T09:49:45.664Z,96870.35
2022-12-26T09:59:56.328Z,96874.03
2022-12-26T10:10:14.809Z,96872.38
2022-12-26T10:20:33.216Z,96869.99
2022-12-26T10:30:42.055Z,96879.77
2022-12-26T10:40:50.822Z,96885.86
2022-12-26T10:50:54.830Z,96871.93
2022-12-26T11:01:27.817Z,96845.69
2022-12-26T11:11:49.146Z,96817.57
2022-12-26T11:21:53.544Z,96791.20
2022-12-26T11:32:03.529Z,96796.05
2022-12-26T11:42:21.726Z,96802.65
2022-12-26T11:52:57.349Z,96805.06
2022-12-26T12:03:03.180Z,96808.54
2022-12-26T12:13:32.502Z,96797.88
2022-12-26T12:24:07.642Z,96783.61
2022-12-26T12:34:31.608Z,96782.76
2022-12-26T12:45:13.795Z,96769.42
2022-12-26T12:55:32.050Z,96744.31
2022-12-26T13:05:56.946Z,96745.71
2022-12-26T13:16:12.975Z,96757.37
2022-12-26T13:26:24.304Z,96754.19
2022-12-26T13:36:53.506Z,96758.95
2022-12-26T13:47:02.535Z,96766.14
2022-12-26T13:57:28.580Z,96783.55
2022-12-26T14:19:46.879Z,96783.89
2022-12-26T14:30:28.621Z,96791.31
2022-12-26T14:52:25.207Z,96755.78
2022-12-26T15:02:35.257Z,96756.70
2022-12-26T15:12:41.384Z,96765.27
2022-12-26T15:23:30.707Z,96775.41
2022-12-26T15:33:49.979Z,96784.67
2022-12-26T15:44:20.959Z,96779.10
2022-12-26T15:54:47.819Z,96776.47
2022-12-26T16:05:12.490Z,96763.55
2022-12-26T16:15:18.605Z,96742.73
2022-12-26T16:25:25.896Z,96750.08
2022-12-26T16:35:36.528Z,96750.80
2022-12-26T16:45:46.232Z,96748.13
2022-12-26T16:56:43.598Z,96751.55
2022-12-26T17:07:22.980Z,96748.52
2022-12-26T17:17:42.660Z,96750.08
2022-12-26T17:28:17.425Z,96771.40
2022-12-26T17:38:30.677Z,96793.57
2022-12-26T17:48:35.753Z,96810.00
2022-12-26T17:58:41.118Z,96818.58
2022-12-26T18:08:46.080Z,96814.73
2022-12-26T18:18:51.116Z,96815.78
2022-12-26T18:28:56.990Z,96808.68
2022-12-26T18:39:02.005Z,96791.34
2022-12-26T18:49:06.604Z,96763.23
2022-12-26T18:59:12.120Z,96741.79
2022-12-26T19:09:17.709Z,96736.79
2022-12-26T19:19:28.532Z,96742.61
2022-12-26T19:29:35.455Z,96742.95
2022-12-26T19:39:41.645Z,96754.64
2022-12-26T19:49:47.067Z,96767.91
2022-12-26T19:59:52.119Z,96766.33
2022-12-26T20:09:57.488Z,96781.85
2022-12-26T20:20:01.787Z,96786.75
2022-12-26T20:30:08.057Z,96793.74
2022-12-26T20:40:13.909Z,96788.36
2022-12-26T20:50:19.247Z,96780.52
2022-12-26T21:00:24.386Z,96789.40
2022-12-26T21:10:29.121Z,96785.39
2022-12-26T21:20:36.683Z,96791.15
2022-12-26T21:30:45.699Z,96801.11
2022-12-26T21:40:50.399Z,96807.58
2022-12-26T21:50:54.721Z,96816.48
2022-12-26T22:00:59.011Z,96797.96
2022-12-26T22:11:22.425Z,96794.28
2022-12-26T22:21:26.795Z,96787.84
2022-12-26T22:31:33.487Z,96790.10
2022-12-26T22:41:38.533Z,96785.89
2022-12-26T22:51:42.497Z,96786.59
2022-12-26T23:01:46.439Z,96799.70
2022-12-26T23:12:10.807Z,96790.41
2022-12-26T23:22:15.000Z,96794.95
2022-12-26T23:32:19.069Z,96793.02
2022-12-26T23:42:23.263Z,96777.81
2022-12-26T23:52:30.696Z,96769.77
